Ocoee, Tennessee
Current Conditions -  °F | °C
As of 9:15 AM on Friday 19 Dec 2014 (Local Time) from KRZR Reporting Station
Clear Clear  
Wind Chill:   Ceiling: Unl
Heat Index:   Visibility: 8mi
Dew Point: -2°   Wind: 0mph
Humidity: 87%   Direction: NA
Pressure: 30.21"   Gusts: NA
Location:  35.13°N, 84.72°W
Report Text: KRZR 191415Z AUTO 00000KT 8SM CLR 00/M02 A3021 RMK
Loading
Personal Weather Stations






























Interactive Weather Map New forecast layout! Learn more

10-Day Weather Forecast

Advertisements
Track Severe Weather on mobile